Time;durP1;ratioP1;P1;durP2;ratioP2;P2;SDS_P1;SDS_P2;PMS_P1;PMS_P2;Temp;Humidity;BMP_temperature;BMP_pressure;BME280_temperature;BME280_humidity;BME280_pressure;Samples;Min_cycle;Max_cycle;Signal;HPM_P1;HPM_P2
2022/04/03 00:00:12;;;;;;;3.78;2.50;;;;;;;-1.19;83.80;102548.94;5071664;28;20552;-76
2022/04/03 00:02:37;;;;;;;4.15;2.38;;;;;;;-1.20;83.06;102551.56;5089563;28;20063;-77
2022/04/03 00:05:04;;;;;;;2.83;2.17;;;;;;;-1.29;81.84;102544.72;5071430;28;20051;-76
2022/04/03 00:07:30;;;;;;;5.95;2.40;;;;;;;-1.40;81.88;102546.59;5055150;28;20096;-76
2022/04/03 00:09:55;;;;;;;3.95;2.67;;;;;;;-1.54;81.57;102555.47;5071140;28;20469;-76
2022/04/03 00:12:21;;;;;;;3.35;2.28;;;;;;;-1.65;82.11;102555.59;5071443;28;20111;-76
2022/04/03 00:14:46;;;;;;;5.53;2.50;;;;;;;-1.66;83.26;102553.88;5071335;28;20451;-76
2022/04/03 00:17:11;;;;;;;3.85;2.58;;;;;;;-1.58;84.10;102548.56;5090160;28;20206;-77
2022/04/03 00:19:38;;;;;;;4.63;2.72;;;;;;;-1.46;84.40;102552.78;5089661;28;20043;-76
2022/04/03 00:22:03;;;;;;;4.20;3.00;;;;;;;-1.34;85.26;102552.63;5090016;28;20028;-76
2022/04/03 00:24:29;;;;;;;6.65;3.33;;;;;;;-1.21;86.10;102552.44;5089791;28;20582;-76
2022/04/03 00:26:55;;;;;;;5.20;2.88;;;;;;;-1.10;86.17;102555.78;5071404;28;20405;-77
2022/04/03 00:29:20;;;;;;;6.75;2.80;;;;;;;-0.99;86.10;102553.84;5089663;28;20028;-77
2022/04/03 00:31:45;;;;;;;5.68;3.47;;;;;;;-0.94;85.79;102553.78;5089581;28;20068;-78
2022/04/03 00:34:11;;;;;;;5.70;2.80;;;;;;;-0.94;85.58;102545.94;5089626;28;20376;-76
2022/04/03 00:36:36;;;;;;;4.75;3.22;;;;;;;-0.95;85.09;102544.25;5091411;28;20035;-76
2022/04/03 00:39:02;;;;;;;6.53;2.88;;;;;;;-0.97;84.86;102538.16;5074628;28;20394;-75
2022/04/03 00:41:27;;;;;;;5.70;3.13;;;;;;;-0.96;84.91;102542.50;5074747;28;20028;-75
2022/04/03 00:43:53;;;;;;;6.65;3.05;;;;;;;-1.00;84.81;102548.66;5074799;28;20039;-76
2022/04/03 00:46:21;;;;;;;6.18;3.17;;;;;;;-1.03;84.42;102543.47;5092741;28;20452;-75
2022/04/03 00:48:47;;;;;;;8.52;2.88;;;;;;;-1.08;84.85;102547.00;5075267;28;20060;-78
2022/04/03 00:51:13;;;;;;;6.43;3.22;;;;;;;-1.11;85.18;102559.25;5092908;28;20095;-76
2022/04/03 00:53:39;;;;;;;10.48;3.50;;;;;;;-1.13;85.59;102548.00;5093000;28;20356;-76
2022/04/03 00:56:05;;;;;;;7.55;3.35;;;;;;;-1.13;86.18;102545.38;5074507;28;20075;-76
2022/04/03 00:58:31;;;;;;;9.73;2.83;;;;;;;-1.14;85.97;102541.88;5074600;28;20036;-76
2022/04/03 01:00:57;;;;;;;5.95;2.88;;;;;;;-1.14;85.98;102547.09;5074744;28;20031;-76
2022/04/03 01:03:22;;;;;;;4.43;2.97;;;;;;;-1.17;85.62;102544.53;5074713;28;20130;-75
2022/04/03 01:05:47;;;;;;;5.18;2.80;;;;;;;-1.21;85.79;102540.22;5074485;28;20341;-78
2022/04/03 01:08:13;;;;;;;7.25;3.10;;;;;;;-1.25;85.14;102543.78;5093019;28;20348;-76
2022/04/03 01:10:40;;;;;;;8.20;3.33;;;;;;;-1.27;85.41;102538.59;5074425;28;20028;-76
2022/04/03 01:13:06;;;;;;;4.88;2.83;;;;;;;-1.28;84.89;102541.22;5074690;28;20446;-76
2022/04/03 01:15:33;;;;;;;4.20;2.95;;;;;;;-1.33;84.70;102540.41;5093162;28;20137;-76
2022/04/03 01:17:59;;;;;;;6.18;2.97;;;;;;;-1.36;83.98;102540.44;5074065;28;20104;-76
2022/04/03 01:20:24;;;;;;;7.13;2.83;;;;;;;-1.37;84.41;102536.09;5092379;28;20028;-75
2022/04/03 01:22:50;;;;;;;6.18;2.85;;;;;;;-1.38;84.76;102537.84;5092728;28;20466;-78
2022/04/03 01:25:15;;;;;;;10.07;3.10;;;;;;;-1.40;84.70;102531.81;5074000;28;20055;-76
2022/04/03 01:27:41;;;;;;;5.20;2.78;;;;;;;-1.44;84.79;102537.94;5073903;28;20380;-76
2022/04/03 01:30:10;;;;;;;4.85;2.72;;;;;;;-1.52;84.17;102530.22;5074042;28;20054;-76
2022/04/03 01:32:36;;;;;;;7.07;2.60;;;;;;;-1.58;84.93;102527.69;5092324;28;20490;-77
2022/04/03 01:35:03;;;;;;;4.97;3.03;;;;;;;-1.65;85.11;102524.28;5092272;28;20036;-77
2022/04/03 01:37:29;;;;;;;5.28;2.47;;;;;;;-1.71;85.06;102513.06;5057824;28;20039;-76
2022/04/03 01:39:54;;;;;;;7.32;2.65;;;;;;;-1.82;85.55;102516.66;5073646;28;20035;-77
2022/04/03 01:42:20;;;;;;;7.07;2.70;;;;;;;-1.90;85.53;102518.47;5074255;28;20298;-77
2022/04/03 01:44:46;;;;;;;5.38;2.63;;;;;;;-2.01;85.45;102522.97;5040627;28;20360;-75
2022/04/03 01:47:11;;;;;;;3.75;2.78;;;;;;;-2.13;85.06;102514.38;5091418;28;20398;-76
2022/04/03 01:49:37;;;;;;;2.88;2.17;;;;;;;-2.24;84.79;102516.25;5056457;28;20038;-76
2022/04/03 01:52:02;;;;;;;3.63;2.40;;;;;;;-2.37;84.99;102514.66;5073479;28;20126;-77
2022/04/03 01:54:28;;;;;;;6.00;2.67;;;;;;;-2.49;84.30;102518.25;5056993;28;20032;-76
2022/04/03 01:56:53;;;;;;;3.83;2.10;;;;;;;-2.57;85.00;102517.44;5091977;28;20053;-78
2022/04/03 01:59:18;;;;;;;3.63;2.45;;;;;;;-2.66;85.24;102515.75;5073382;28;20112;-76
2022/04/03 02:01:44;;;;;;;4.82;2.58;;;;;;;-2.75;85.22;102521.91;5073379;28;20483;-77
2022/04/03 02:04:10;;;;;;;3.33;2.40;;;;;;;-2.81;85.16;102510.69;5073662;28;20409;-77
2022/04/03 02:06:35;;;;;;;2.80;2.13;;;;;;;-2.90;85.09;102515.06;5091937;28;20028;-77
2022/04/03 02:09:01;;;;;;;3.50;2.42;;;;;;;-2.97;84.88;102505.59;5056567;28;20027;-76
2022/04/03 02:11:27;;;;;;;6.10;2.13;;;;;;;-3.02;85.49;102507.34;5091716;28;20144;-76
2022/04/03 02:13:53;;;;;;;3.17;2.45;;;;;;;-3.09;85.49;102509.16;5073418;28;20077;-75
2022/04/03 02:16:18;;;;;;;5.03;2.60;;;;;;;-3.13;85.33;102519.59;5073359;28;20375;-77
2022/04/03 02:18:44;;;;;;;4.25;2.60;;;;;;;-3.19;85.33;102515.28;5040030;28;20474;-75
2022/04/03 02:21:09;;;;;;;3.08;2.30;;;;;;;-3.26;85.34;102511.00;5073180;28;20452;-76
2022/04/03 02:23:34;;;;;;;7.05;2.85;;;;;;;-3.30;85.25;102515.38;5056161;28;20054;-76
2022/04/03 02:26:00;;;;;;;8.52;2.70;;;;;;;-3.32;85.74;102521.44;5072589;28;20048;-77
2022/04/03 02:28:25;;;;;;;3.30;2.20;;;;;;;-3.35;85.91;102517.13;5075285;28;20428;-75
2022/04/03 02:30:51;;;;;;;4.55;2.53;;;;;;;-3.35;86.17;102513.66;5075007;28;20452;-76
2022/04/03 02:33:16;;;;;;;2.53;2.20;;;;;;;-3.36;85.93;102510.16;5074838;28;20488;-75
2022/04/03 02:35:42;;;;;;;6.80;2.95;;;;;;;-3.37;85.54;102516.28;5094065;28;20032;-76
2022/04/03 02:38:08;;;;;;;4.65;2.75;;;;;;;-3.40;85.77;102511.94;5092987;28;20024;-76
2022/04/03 02:40:34;;;;;;;3.65;2.45;;;;;;;-3.43;86.41;102511.94;5091765;28;20534;-76
2022/04/03 02:42:59;;;;;;;5.72;2.70;;;;;;;-3.44;86.43;102519.78;5073430;28;20028;-78
2022/04/03 02:45:25;;;;;;;6.97;2.88;;;;;;;-3.45;87.15;102520.63;5091166;28;20104;-76
2022/04/03 02:47:54;;;;;;;4.05;2.75;;;;;;;-3.47;87.28;102519.78;5076325;28;20360;-75
2022/04/03 02:50:25;;;;;;;3.38;2.70;;;;;;;-3.51;86.88;102515.47;5073293;28;20066;-77
2022/04/03 02:52:52;;;;;;;6.28;3.08;;;;;;;-3.52;87.16;102517.22;5090759;28;20464;-74
2022/04/03 02:55:19;;;;;;;7.78;3.00;;;;;;;-3.53;87.64;102523.28;5072280;28;20552;-76
2022/04/03 02:57:45;;;;;;;2.95;2.50;;;;;;;-3.53;88.68;102525.03;5072445;28;20424;-76
2022/04/03 03:00:14;;;;;;;4.10;2.75;;;;;;;-3.57;88.84;102519.84;5072126;28;20028;-76
2022/04/03 03:02:44;;;;;;;6.88;2.78;;;;;;;-3.59;88.33;102518.97;5090469;28;20096;-76
2022/04/03 03:05:13;;;;;;;3.70;2.72;;;;;;;-3.60;88.92;102513.75;5072282;28;20127;-77
2022/04/03 03:07:39;;;;;;;4.60;2.67;;;;;;;-3.62;88.68;102518.97;5090713;28;20031;-75
2022/04/03 03:10:07;;;;;;;4.05;2.60;;;;;;;-3.65;88.66;102516.41;5072210;28;20034;-77
2022/04/03 03:12:33;;;;;;;5.45;2.95;;;;;;;-3.68;88.41;102519.00;5090743;28;20076;-76
2022/04/03 03:14:59;;;;;;;2.72;2.42;;;;;;;-3.70;87.74;102512.06;5090143;28;20024;-76
2022/04/03 03:17:25;;;;;;;2.75;2.40;;;;;;;-3.73;88.27;102518.19;5090470;28;20104;-75
2022/04/03 03:19:50;;;;;;;4.63;2.33;;;;;;;-3.77;87.94;102514.69;5072114;28;20118;-76
2022/04/03 03:22:15;;;;;;;3.97;2.50;;;;;;;-3.82;87.46;102516.47;5090359;28;20233;-76
2022/04/03 03:24:41;;;;;;;6.13;2.67;;;;;;;-3.86;87.51;102511.28;5071936;28;20142;-75
2022/04/03 03:27:06;;;;;;;3.53;2.45;;;;;;;-3.88;88.25;102520.81;5089884;28;20429;-77
2022/04/03 03:29:32;;;;;;;4.65;2.58;;;;;;;-3.90;88.57;102515.63;5072153;28;20462;-76
2022/04/03 03:31:57;;;;;;;3.47;2.55;;;;;;;-3.92;88.25;102515.63;5090917;28;20074;-76
2022/04/03 03:34:23;;;;;;;5.45;2.33;;;;;;;-3.95;88.32;102514.78;5072214;28;20077;-76
2022/04/03 03:36:48;;;;;;;3.95;2.60;;;;;;;-4.00;88.23;102508.72;5090364;28;20039;-76
2022/04/03 03:39:14;;;;;;;6.65;2.97;;;;;;;-4.02;87.85;102508.72;5090430;28;20039;-77
2022/04/03 03:41:40;;;;;;;5.32;2.72;;;;;;;-4.03;87.92;102519.13;5089971;28;20051;-77
2022/04/03 03:44:10;;;;;;;3.38;2.50;;;;;;;-4.06;87.68;102512.22;5071962;28;20024;-79
2022/04/03 03:46:39;;;;;;;5.50;2.40;;;;;;;-4.08;88.25;102514.78;5090478;28;20134;-76
2022/04/03 03:49:09;;;;;;;3.50;2.65;;;;;;;-4.11;88.28;102504.41;5071753;28;20040;-76
2022/04/03 03:51:37;;;;;;;3.65;2.65;;;;;;;-4.11;88.11;102508.75;5071785;28;20409;-77
2022/04/03 03:54:03;;;;;;;3.17;2.65;;;;;;;-4.13;88.16;102516.56;5055073;28;20036;-76
2022/04/03 03:56:29;;;;;;;5.90;2.65;;;;;;;-4.15;88.00;102514.81;5090385;28;20036;-76
2022/04/03 03:58:55;;;;;;;4.90;2.55;;;;;;;-4.19;88.07;102511.38;5090350;28;20048;-77
2022/04/03 04:01:21;;;;;;;3.90;2.75;;;;;;;-4.20;88.70;102507.03;5089876;28;20035;-77
2022/04/03 04:03:46;;;;;;;3.17;2.58;;;;;;;-4.21;88.70;102520.91;5071628;28;20032;-77
2022/04/03 04:06:12;;;;;;;5.38;2.92;;;;;;;-4.22;88.77;102515.69;5089940;28;20104;-77
2022/04/03 04:08:37;;;;;;;6.50;2.75;;;;;;;-4.18;89.48;102520.03;5055180;28;20032;-77
2022/04/03 04:11:03;;;;;;;3.53;2.63;;;;;;;-4.17;89.63;102524.38;5072022;28;20085;-77
2022/04/03 04:13:28;;;;;;;4.15;3.00;;;;;;;-4.16;90.06;102526.09;5058323;28;20403;-77
2022/04/03 04:15:54;;;;;;;4.78;2.70;;;;;;;-4.14;90.40;102524.34;5093963;28;20043;-76
2022/04/03 04:18:20;;;;;;;4.70;2.85;;;;;;;-4.14;90.97;102535.59;5075900;28;20131;-77
2022/04/03 04:20:45;;;;;;;4.45;2.72;;;;;;;-4.12;90.77;102528.69;5075617;28;20085;-77
2022/04/03 04:23:10;;;;;;;6.95;3.28;;;;;;;-4.11;90.31;102535.59;5075182;28;20395;-78
2022/04/03 04:25:36;;;;;;;5.70;3.25;;;;;;;-4.11;89.99;102530.41;5075062;28;20052;-76
2022/04/03 04:28:02;;;;;;;6.60;3.70;;;;;;;-4.11;90.43;102535.59;5075277;28;20107;-75
2022/04/03 04:30:28;;;;;;;7.30;3.15;;;;;;;-4.10;91.49;102528.69;5074971;28;20414;-77
2022/04/03 04:32:53;;;;;;;4.03;2.90;;;;;;;-4.11;91.08;102532.16;5093503;28;20078;-77
2022/04/03 04:35:19;;;;;;;3.53;2.80;;;;;;;-4.12;91.10;102533.00;5093445;28;20036;-77
2022/04/03 04:37:44;;;;;;;8.13;3.13;;;;;;;-4.13;90.41;102537.34;5093173;28;20122;-77
2022/04/03 04:40:11;;;;;;;4.82;2.80;;;;;;;-4.12;90.69;102530.41;5058378;28;20111;-76
2022/04/03 04:42:36;;;;;;;5.63;2.75;;;;;;;-4.12;91.30;102530.41;5074957;28;20108;-76
2022/04/03 04:45:04;;;;;;;6.53;3.50;;;;;;;-4.12;91.58;102531.28;5074493;28;20061;-77
2022/04/03 04:47:37;;;;;;;5.68;3.25;;;;;;;-4.11;91.82;102527.81;5074340;28;20497;-77
2022/04/03 04:50:10;;;;;;;5.90;3.53;;;;;;;-4.09;92.22;102536.47;5075103;28;20108;-77
2022/04/03 04:52:36;;;;;;;8.52;3.40;;;;;;;-4.11;91.97;102529.53;5093145;28;20020;-77
2022/04/03 04:55:05;;;;;;;6.72;3.50;;;;;;;-4.13;91.94;102529.56;5093348;28;20035;-77
2022/04/03 04:57:35;;;;;;;5.60;3.28;;;;;;;-4.12;91.91;102528.69;5074853;28;20371;-77
2022/04/03 05:00:02;;;;;;;6.20;3.55;;;;;;;-4.13;92.60;102526.97;5093129;28;20028;-76
2022/04/03 05:02:28;;;;;;;6.03;3.47;;;;;;;-4.13;92.27;102523.50;5092555;28;20167;-76
2022/04/03 05:04:53;;;;;;;5.13;3.58;;;;;;;-4.14;92.47;102527.81;5074345;28;20448;-76
2022/04/03 05:07:19;;;;;;;5.05;3.58;;;;;;;-4.10;93.01;102523.50;5041014;28;20032;-77
2022/04/03 05:09:46;;;;;;;5.00;3.75;;;;;;;-4.07;93.81;102521.72;5074411;28;20035;-76
2022/04/03 05:12:13;;;;;;;5.35;3.45;;;;;;;-4.06;93.88;102527.81;5074254;28;20093;-77
2022/04/03 05:14:38;;;;;;;7.47;3.78;;;;;;;-4.04;93.52;102525.22;5074505;28;20050;-77
2022/04/03 05:17:05;;;;;;;5.38;3.22;;;;;;;-4.03;93.26;102524.31;5092319;28;20039;-76
2022/04/03 05:19:32;;;;;;;6.18;3.50;;;;;;;-4.03;93.37;102524.31;5057582;28;20028;-76
2022/04/03 05:21:57;;;;;;;6.65;3.22;;;;;;;-4.02;93.36;102531.25;5092248;28;20027;-77
2022/04/03 05:24:22;;;;;;;8.55;3.33;;;;;;;-4.03;92.87;102527.81;5092031;28;20052;-77
2022/04/03 05:26:48;;;;;;;7.53;3.90;;;;;;;-4.03;92.72;102524.31;5073648;28;20064;-76
2022/04/03 05:29:13;;;;;;;6.93;3.70;;;;;;;-4.04;92.37;102526.06;5073965;28;20055;-76
2022/04/03 05:31:39;;;;;;;7.47;4.30;;;;;;;-4.01;92.96;102520.00;5073746;28;20119;-76
2022/04/03 05:34:05;;;;;;;11.32;5.28;;;;;;;-3.97;93.65;102520.00;5057540;28;20035;-76
2022/04/03 05:36:31;;;;;;;8.48;4.47;;;;;;;-3.88;94.44;102520.81;5092023;28;20036;-75
2022/04/03 05:38:56;;;;;;;7.38;4.40;;;;;;;-3.81;94.36;102517.31;5073754;28;20456;-76
2022/04/03 05:41:22;;;;;;;9.00;4.38;;;;;;;-3.77;94.40;102513.84;5092351;28;20035;-77
2022/04/03 05:43:47;;;;;;;9.98;4.60;;;;;;;-3.72;95.04;102520.78;5057116;28;20476;-77
2022/04/03 05:46:13;;;;;;;7.30;4.32;;;;;;;-3.68;95.37;102519.00;5092047;28;20055;-77
2022/04/03 05:48:39;;;;;;;7.05;4.35;;;;;;;-3.62;95.22;102513.78;5057079;28;20028;-76
2022/04/03 05:51:04;;;;;;;9.50;5.40;;;;;;;-3.56;95.35;102516.34;5073021;28;20031;-77
2022/04/03 05:53:30;;;;;;;8.85;4.50;;;;;;;-3.49;95.94;102517.19;5056923;28;20028;-76
2022/04/03 05:55:55;;;;;;;14.15;6.75;;;;;;;-3.41;96.31;102525.81;5073167;28;20043;-77
2022/04/03 05:58:21;;;;;;;6.55;4.60;;;;;;;-3.32;96.29;102524.91;5091580;28;20185;-79
2022/04/03 06:00:46;;;;;;;6.97;5.28;;;;;;;-3.22;96.81;102523.97;5073261;28;20050;-76
2022/04/03 06:03:12;;;;;;;7.60;4.30;;;;;;;-3.13;96.60;102519.59;5091387;28;20114;-75
2022/04/03 06:05:40;;;;;;;7.82;4.55;;;;;;;-3.02;96.77;102529.03;5056111;28;20063;-77
2022/04/03 06:08:06;;;;;;;5.40;4.00;;;;;;;-2.91;96.88;102530.72;5040306;28;20124;-76
2022/04/03 06:10:34;;;;;;;7.75;4.10;;;;;;;-2.79;97.27;102525.44;5091232;28;20100;-77
2022/04/03 06:13:02;;;;;;;5.78;3.70;;;;;;;-2.65;97.34;102530.53;5091435;28;20031;-75
2022/04/03 06:15:39;;;;;;;7.10;4.30;;;;;;;-2.49;97.67;102534.72;5091201;28;20191;-76
2022/04/03 06:18:07;;;;;;;5.03;4.00;;;;;;;-2.35;98.20;102528.53;5091123;28;20425;-76
2022/04/03 06:20:33;;;;;;;6.82;4.03;;;;;;;-2.27;98.25;102531.91;5091260;28;20048;-76
2022/04/03 06:22:59;;;;;;;5.38;3.67;;;;;;;-2.22;98.12;102535.34;5072390;28;20064;-77
2022/04/03 06:25:24;;;;;;;6.28;3.70;;;;;;;-2.16;98.00;102537.91;5091010;28;20541;-80
2022/04/03 06:27:52;;;;;;;4.95;3.72;;;;;;;-2.07;97.96;102538.69;5091548;28;20122;-77
2022/04/03 06:30:17;;;;;;;7.38;4.00;;;;;;;-1.96;98.11;102542.94;5090993;28;20032;-77
2022/04/03 06:32:43;;;;;;;8.75;4.55;;;;;;;-1.84;98.21;102552.34;5090748;28;20396;-77
2022/04/03 06:35:09;;;;;;;5.07;4.07;;;;;;;-1.69;98.71;102538.25;5071732;28;20059;-77
2022/04/03 06:37:35;;;;;;;7.47;3.83;;;;;;;-1.47;98.60;102545.81;5090970;28;20040;-77
2022/04/03 06:40:01;;;;;;;6.15;4.40;;;;;;;-1.22;98.53;102542.88;5091120;28;20129;-77
2022/04/03 06:42:29;;;;;;;8.43;4.78;;;;;;;-1.00;98.46;102554.75;5090714;28;20111;-79
2022/04/03 06:44:55;;;;;;;6.20;4.45;;;;;;;-0.82;98.88;102547.50;5072282;28;20401;-77
2022/04/03 06:47:21;;;;;;;5.90;4.72;;;;;;;-0.69;98.48;102548.19;5072777;28;20043;-77
2022/04/03 06:49:46;;;;;;;8.77;4.97;;;;;;;-0.55;98.03;102554.06;5090536;28;20041;-77
2022/04/03 06:52:12;;;;;;;8.18;4.70;;;;;;;-0.39;98.05;102552.03;5072240;28;20084;-77
2022/04/03 06:54:37;;;;;;;8.68;5.10;;;;;;;-0.25;98.09;102552.66;5090833;28;20465;-77
2022/04/03 06:57:03;;;;;;;10.45;5.45;;;;;;;-0.06;98.21;102550.59;5090447;28;20039;-77
2022/04/03 06:59:29;;;;;;;6.28;4.28;;;;;;;0.11;97.84;102550.25;5091102;28;20364;-77
2022/04/03 07:01:55;;;;;;;13.52;4.53;;;;;;;0.31;97.69;102549.00;5090714;28;20066;-77
2022/04/03 07:04:21;;;;;;;4.40;4.00;;;;;;;0.49;97.00;102553.00;5090460;28;20044;-75
2022/04/03 07:06:46;;;;;;;6.50;3.95;;;;;;;0.67;96.33;102552.63;5090536;28;20031;-76
2022/04/03 07:09:11;;;;;;;5.85;3.85;;;;;;;1.00;96.64;102563.25;5055597;28;20032;-75
2022/04/03 07:11:37;;;;;;;4.43;3.65;;;;;;;1.59;99.17;102567.09;5090409;28;20073;-76
2022/04/03 07:14:03;;;;;;;6.18;3.88;;;;;;;2.11;99.22;102552.59;5072184;28;20436;-76
2022/04/03 07:16:28;;;;;;;5.88;2.88;;;;;;;2.72;98.60;102564.03;5055458;28;20040;-78
2022/04/03 07:18:53;;;;;;;5.00;2.75;;;;;;;3.27;92.14;102558.78;5090312;28;20106;-76
2022/04/03 07:21:19;;;;;;;4.68;1.90;;;;;;;3.52;83.02;102562.34;5055227;28;20046;-76
2022/04/03 07:23:44;;;;;;;3.97;2.05;;;;;;;3.69;80.58;102567.03;5054945;28;20064;-76
2022/04/03 07:26:10;;;;;;;4.22;2.10;;;;;;;3.69;74.81;102574.09;5072069;28;20082;-76
2022/04/03 07:28:36;;;;;;;5.47;2.20;;;;;;;3.70;75.70;102573.16;5071576;28;20036;-76
2022/04/03 07:31:02;;;;;;;2.97;2.10;;;;;;;3.68;74.22;102578.47;5090096;28;20093;-75
2022/04/03 07:33:27;;;;;;;7.35;2.60;;;;;;;3.66;74.18;102568.94;5071931;28;20464;-76
2022/04/03 07:35:53;;;;;;;3.05;2.20;;;;;;;3.77;75.77;102566.78;5090094;28;20040;-76
2022/04/03 07:38:19;;;;;;;2.00;1.80;;;;;;;4.05;77.48;102563.19;5071949;28;20028;-76
2022/04/03 07:40:48;;;;;;;4.53;2.20;;;;;;;4.32;75.82;102565.75;5071606;28;20435;-77
2022/04/03 07:43:17;;;;;;;3.55;1.95;;;;;;;4.63;73.99;102561.94;5071729;28;20032;-76
2022/04/03 07:45:44;;;;;;;4.93;1.95;;;;;;;4.86;72.22;102556.66;5091551;28;20103;-77
2022/04/03 07:48:09;;;;;;;4.05;1.67;;;;;;;5.08;72.03;102555.81;5094091;28;20072;-78
2022/04/03 07:50:35;;;;;;;5.55;1.90;;;;;;;5.14;70.55;102555.56;5094137;28;20159;-78
2022/04/03 07:53:00;;;;;;;4.15;1.33;;;;;;;5.21;69.01;102564.09;5075861;28;20183;-78
2022/04/03 07:55:26;;;;;;;6.25;1.67;;;;;;;5.28;67.49;102550.59;5094019;28;20063;-78
2022/04/03 07:57:51;;;;;;;4.18;1.73;;;;;;;5.48;67.70;102560.31;5093860;28;20153;-78
2022/04/03 08:00:17;;;;;;;5.65;2.63;;;;;;;5.57;65.00;102555.56;5094360;28;20153;-78
2022/04/03 08:02:42;;;;;;;1.58;1.10;;;;;;;5.69;62.88;102556.84;5093758;28;20032;-77
2022/04/03 08:05:09;;;;;;;2.80;1.50;;;;;;;5.90;63.85;102563.00;5093908;28;20443;-77
2022/04/03 08:07:46;;;;;;;3.50;1.55;;;;;;;6.32;62.29;102562.91;5075520;28;20402;-81
2022/04/03 08:10:14;;;;;;;5.93;2.20;;;;;;;6.70;59.78;102564.72;5093934;28;20028;-78
2022/04/03 08:12:43;;;;;;;4.20;1.90;;;;;;;7.40;59.47;102567.53;5093891;28;20043;-78
2022/04/03 08:15:10;;;;;;;3.85;1.60;;;;;;;8.08;56.23;102564.97;5094094;28;20458;-77
2022/04/03 08:17:38;;;;;;;6.15;2.30;;;;;;;8.59;53.98;102567.59;5093651;28;20024;-81
2022/04/03 08:20:08;;;;;;;3.03;1.75;;;;;;;8.44;52.30;102566.63;5093468;28;20150;-79
2022/04/03 08:22:35;;;;;;;5.30;1.77;;;;;;;8.21;53.25;102566.97;5093699;28;20099;-79
2022/04/03 08:25:02;;;;;;;2.92;1.70;;;;;;;8.32;53.22;102569.91;5074754;28;20063;-78
2022/04/03 08:27:42;;;;;;;6.07;1.75;;;;;;;8.21;54.09;102569.59;5093333;28;20193;-76
2022/04/03 08:30:10;;;;;;;3.85;1.92;;;;;;;8.26;53.65;102568.44;5093303;28;20619;-77
2022/04/03 08:32:35;;;;;;;3.35;1.58;;;;;;;8.14;52.47;102560.28;5093298;28;20119;-78
2022/04/03 08:35:01;;;;;;;5.60;1.50;;;;;;;8.28;53.25;102565.69;5093174;28;20119;-76
2022/04/03 08:37:28;;;;;;;3.17;1.40;;;;;;;8.13;52.41;102564.72;5092985;28;20028;-76
2022/04/03 08:39:53;;;;;;;3.95;1.40;;;;;;;7.75;53.00;102565.78;5074647;28;20028;-75
2022/04/03 08:42:19;;;;;;;1.73;1.40;;;;;;;7.18;54.54;102565.97;5093272;28;20368;-77
2022/04/03 08:44:44;;;;;;;4.07;1.48;;;;;;;6.82;55.14;102565.94;5057997;28;20032;-76
2022/04/03 08:47:12;;;;;;;5.15;1.30;;;;;;;6.64;56.26;102568.53;5093112;28;20635;-76
2022/04/03 08:49:40;;;;;;;4.38;0.90;;;;;;;6.50;52.13;102573.59;5093320;28;20050;-78
2022/04/03 08:52:09;;;;;;;3.03;0.88;;;;;;;6.39;53.87;102574.06;5092882;28;20028;-80
2022/04/03 08:54:36;;;;;;;1.67;0.65;;;;;;;6.29;51.31;102565.69;5092491;28;20036;-76
2022/04/03 08:57:02;;;;;;;3.10;0.70;;;;;;;6.37;50.68;102567.13;5091706;28;20076;-78
2022/04/03 08:59:27;;;;;;;2.83;0.98;;;;;;;6.54;49.39;102575.16;5074339;28;20404;-77
2022/04/03 09:01:53;;;;;;;5.03;0.80;;;;;;;6.64;50.15;102572.94;5092719;28;20051;-76
2022/04/03 09:04:20;;;;;;;2.22;0.70;;;;;;;6.68;50.35;102570.06;5074161;28;20032;-76
2022/04/03 09:06:56;;;;;;;1.30;0.55;;;;;;;6.69;50.43;102573.59;5074238;28;20101;-76
2022/04/03 09:09:24;;;;;;;1.25;0.57;;;;;;;6.68;51.46;102571.88;5092384;28;20063;-77
2022/04/03 09:12:13;;;;;;;2.15;1.00;;;;;;;6.59;53.12;102570.50;5092136;28;20032;-77
2022/04/03 09:14:45;;;;;;;3.50;0.80;;;;;;;6.37;55.98;102570.63;5092232;28;20143;-75
2022/04/03 09:17:11;;;;;;;3.78;0.77;;;;;;;6.26;56.11;102572.91;5091961;28;20468;-77
2022/04/03 09:19:36;;;;;;;1.75;0.68;;;;;;;6.45;56.25;102568.50;5092235;28;20046;-76
2022/04/03 09:22:03;;;;;;;2.88;0.68;;;;;;;7.54;54.72;102562.44;5091987;28;20043;-76
2022/04/03 09:24:29;;;;;;;2.75;0.90;;;;;;;8.70;50.99;102561.69;5091822;28;20051;-77
2022/04/03 09:27:02;;;;;;;3.40;0.68;;;;;;;10.07;47.26;102566.19;5091824;28;20380;-76
2022/04/03 09:29:28;;;;;;;2.13;0.60;;;;;;;10.36;44.54;102558.22;5092168;28;20130;-77
2022/04/03 09:32:01;;;;;;;5.95;1.02;;;;;;;9.75;46.59;102560.16;5092248;28;20453;-77
2022/04/03 09:34:29;;;;;;;3.03;0.80;;;;;;;9.15;48.36;102565.38;5091721;28;20348;-77
2022/04/03 09:36:59;;;;;;;3.30;0.90;;;;;;;8.83;50.34;102568.03;5092029;28;20111;-78
2022/04/03 09:39:27;;;;;;;3.00;0.80;;;;;;;8.37;52.24;102565.19;5073556;28;20436;-78
2022/04/03 09:42:06;;;;;;;3.95;0.80;;;;;;;8.22;53.44;102574.81;5091654;28;20455;-77
2022/04/03 09:44:34;;;;;;;1.30;0.73;;;;;;;8.51;52.87;102566.28;5091617;28;20352;-77
2022/04/03 09:47:26;;;;;;;3.75;0.60;;;;;;;8.97;51.59;102567.28;5091324;28;20125;-76
2022/04/03 09:49:59;;;;;;;1.23;0.75;;;;;;;9.13;51.34;102561.94;5091802;28;20032;-78
2022/04/03 09:52:34;;;;;;;5.05;0.95;;;;;;;9.28;50.38;102562.84;5091888;28;20032;-76
2022/04/03 09:55:00;;;;;;;2.22;0.80;;;;;;;9.42;50.71;102556.75;5091789;28;20429;-77
2022/04/03 09:57:26;;;;;;;2.90;0.68;;;;;;;9.40;49.86;102558.63;5073742;28;20035;-77
2022/04/03 09:59:54;;;;;;;1.45;0.55;;;;;;;8.89;46.86;102560.69;5040100;28;20028;-77
2022/04/03 10:02:23;;;;;;;1.05;0.65;;;;;;;8.75;46.73;102554.34;5091580;28;20034;-76
2022/04/03 10:04:50;;;;;;;5.60;0.60;;;;;;;8.69;48.65;102548.50;5091627;28;20039;-79
2022/04/03 10:07:16;;;;;;;3.28;0.82;;;;;;;8.60;48.72;102550.72;5091556;28;20024;-76
2022/04/03 10:09:49;;;;;;;0.50;0.40;;;;;;;8.94;46.97;102551.50;5055391;28;20532;-77
2022/04/03 10:12:17;;;;;;;1.48;0.68;;;;;;;9.08;47.95;102544.56;5091482;28;20115;-75
2022/04/03 10:14:44;;;;;;;1.70;0.60;;;;;;;9.70;45.58;102549.78;5091509;28;20332;-77
2022/04/03 10:17:10;;;;;;;0.75;0.40;;;;;;;10.75;43.85;102543.38;5091265;28;20028;-75
2022/04/03 10:19:36;;;;;;;1.17;0.60;;;;;;;11.19;41.81;102542.25;5091835;28;20332;-76
2022/04/03 10:22:03;;;;;;;1.17;0.40;;;;;;;10.71;42.41;102541.84;5091269;28;20051;-77
2022/04/03 10:24:31;;;;;;;3.33;1.00;;;;;;;10.21;43.32;102544.94;5073051;28;20103;-78
2022/04/03 10:27:27;;;;;;;1.58;0.70;;;;;;;9.68;45.50;102551.69;5091479;28;20111;-77
2022/04/03 10:29:59;;;;;;;2.88;0.98;;;;;;;9.66;47.39;102553.59;5083404;27;1263029;-76
2022/04/03 10:32:30;;;;;;;2.88;0.70;;;;;;;8.86;51.65;102551.06;5106859;28;20036;-75
2022/04/03 10:35:09;;;;;;;3.15;0.90;;;;;;;8.21;55.20;102559.00;5106221;28;20052;-77
2022/04/03 10:37:38;;;;;;;1.83;0.77;;;;;;;7.72;57.94;102568.59;5071359;28;20027;-76
2022/04/03 10:40:10;;;;;;;3.72;1.17;;;;;;;8.50;58.03;102549.53;5106118;28;20027;-77
2022/04/03 10:42:55;;;;;;;1.25;0.68;;;;;;;10.88;50.98;102552.28;5106576;28;20031;-76
2022/04/03 10:45:35;;;;;;;6.47;0.88;;;;;;;12.78;46.31;102544.66;5088018;28;20116;-77
2022/04/03 10:48:19;;;;;;;1.90;0.80;;;;;;;13.65;42.96;102547.13;5105726;28;20034;-78
2022/04/03 10:51:05;;;;;;;1.55;0.70;;;;;;;14.91;40.43;102547.06;5106332;28;20027;-77
2022/04/03 10:53:48;;;;;;;3.63;0.90;;;;;;;14.81;38.14;102541.56;5106368;28;20027;-78
2022/04/03 10:56:25;;;;;;;2.65;0.90;;;;;;;14.92;36.42;102551.41;5106208;28;20027;-77
2022/04/03 10:58:53;;;;;;;3.22;0.85;;;;;;;14.64;36.52;102539.41;5106268;28;20036;-78
2022/04/03 11:01:24;;;;;;;2.78;0.88;;;;;;;14.71;36.82;102535.25;5106232;28;20059;-78
2022/04/03 11:04:00;;;;;;;5.07;0.80;;;;;;;14.72;37.35;102533.44;5087796;28;20032;-80
2022/04/03 11:06:31;;;;;;;1.33;0.55;;;;;;;14.60;37.98;102535.25;5108024;28;20061;-78
2022/04/03 11:09:04;;;;;;;0.82;0.70;;;;;;;15.18;36.34;102535.00;5105864;28;20028;-80
2022/04/03 11:11:42;;;;;;;2.03;0.68;;;;;;;13.89;39.58;102530.16;5107043;28;20036;-76
2022/04/03 11:14:08;;;;;;;5.85;0.98;;;;;;;12.36;44.08;102533.47;5105356;28;20111;-76
2022/04/03 11:16:54;;;;;;;2.05;0.80;;;;;;;13.15;43.41;102546.41;5105696;28;20425;-76
2022/04/03 11:19:39;;;;;;;2.50;0.57;;;;;;;14.22;40.15;102531.16;5105939;28;20020;-77
2022/04/03 11:22:08;;;;;;;1.55;0.60;;;;;;;15.25;36.03;102529.97;5087687;28;20024;-78
2022/04/03 11:24:36;;;;;;;4.10;0.75;;;;;;;15.67;35.15;102530.00;5106232;28;20530;-77
2022/04/03 11:27:03;;;;;;;1.00;0.50;;;;;;;15.53;36.25;102531.19;5105604;28;20462;-76